TimeMDT,TemperatureF,Dew PointF,Humidity,Sea Level PressureIn,VisibilityMPH,Wind Direction,Wind SpeedMPH,Gust SpeedMPH,PrecipitationIn,Events,Conditions,WindDirDegrees,DateUTC
12:05 AM,19.4,17.6,93,30.26,1.8,East,4.6,-,0.00,Snow,Light Snow,80,2013-04-23 06:05:00
12:16 AM,19.4,17.6,93,30.26,2.0,Calm,Calm,-,0.01,Snow,Light Snow,0,2013-04-23 06:16:00
12:30 AM,19.4,17.6,93,30.26,3.0,Calm,Calm,-,0.01,Snow,Light Snow,0,2013-04-23 06:30:00
12:53 AM,19.0,15.1,85,30.40,2.5,ENE,3.5,-,0.01,Snow,Light Snow,70,2013-04-23 06:53:00
1:05 AM,19.4,15.8,86,30.25,3.0,ENE,3.5,-,0.00,Snow,Light Snow,60,2013-04-23 07:05:00
1:22 AM,17.6,15.8,93,30.25,4.0,Calm,Calm,-,0.00,Snow,Light Snow,0,2013-04-23 07:22:00
1:53 AM,17.1,15.1,92,30.40,4.0,West,3.5,-,0.00,Snow,Light Snow,260,2013-04-23 07:53:00
2:06 AM,17.6,14.0,86,30.25,4.0,West,4.6,-,0.00,,Overcast,270,2013-04-23 08:06:00
2:53 AM,16.0,12.9,88,30.40,8.0,West,4.6,-,0.00,,Overcast,270,2013-04-23 08:53:00
3:53 AM,14.0,10.9,88,30.39,7.0,SSW,3.5,-,N/A,,Overcast,200,2013-04-23 09:53:00
4:53 AM,14.0,5.0,67,30.40,10.0,WSW,11.5,-,N/A,,Overcast,240,2013-04-23 10:53:00
5:27 AM,12.2,3.2,67,30.21,10.0,SW,8.1,-,N/A,,Scattered Clouds,230,2013-04-23 11:27:00
5:53 AM,14.0,3.0,62,30.38,10.0,SW,8.1,-,N/A,,Clear,220,2013-04-23 11:53:00
6:53 AM,12.0,1.9,64,30.40,10.0,SSW,4.6,-,N/A,,Clear,210,2013-04-23 12:53:00
7:53 AM,10.9,5.0,77,30.41,10.0,Calm,Calm,-,N/A,,Clear,0,2013-04-23 13:53:00
8:53 AM,12.9,8.1,81,30.40,10.0,Calm,Calm,-,N/A,,Clear,0,2013-04-23 14:53:00
9:53 AM,19.0,12.9,77,30.36,10.0,Calm,Calm,-,N/A,,Clear,0,2013-04-23 15:53:00
10:53 AM,21.0,15.1,78,30.34,10.0,Calm,Calm,-,N/A,,Clear,0,2013-04-23 16:53:00
11:53 AM,25.0,14.0,63,30.31,10.0,Calm,Calm,-,N/A,,Clear,0,2013-04-23 17:53:00
12:53 PM,28.0,16.0,61,30.27,10.0,Calm,Calm,-,N/A,,Clear,0,2013-04-23 18:53:00
1:53 PM,30.9,17.1,57,30.24,10.0,Calm,Calm,-,N/A,,Clear,0,2013-04-23 19:53:00
2:53 PM,34.0,12.9,42,30.22,10.0,Variable,3.5,-,N/A,,Clear,0,2013-04-23 20:53:00
3:53 PM,37.0,9.0,31,30.19,10.0,ESE,4.6,-,N/A,,Clear,110,2013-04-23 21:53:00
4:53 PM,37.9,3.9,24,30.17,10.0,Calm,Calm,-,N/A,,Clear,0,2013-04-23 22:53:00
5:53 PM,39.0,8.1,28,30.16,10.0,SSE,4.6,-,N/A,,Clear,160,2013-04-23 23:53:00
6:53 PM,39.0,8.1,28,30.17,10.0,Variable,3.5,-,N/A,,Clear,0,2013-04-24 00:53:00
7:53 PM,34.0,16.0,48,30.20,10.0,West,6.9,-,N/A,,Clear,260,2013-04-24 01:53:00
8:53 PM,34.0,14.0,44,30.22,10.0,Calm,Calm,-,N/A,,Clear,0,2013-04-24 02:53:00
9:53 PM,32.0,17.1,54,30.22,10.0,WSW,3.5,-,N/A,,Clear,240,2013-04-24 03:53:00
10:53 PM,30.9,18.0,59,30.22,10.0,WSW,6.9,-,N/A,,Clear,250,2013-04-24 04:53:00
11:53 PM,30.0,18.0,61,30.20,10.0,NW,8.1,-,N/A,,Clear,310,2013-04-24 05:53:00